Terminal Aerodrome Forecast
Issued by NWS

Home | Current Version | Previous Version | Text Only | Print | Product List | Glossary On
Versions: 1 2 3 4 5 6 7 8 9 10 11 12 13
040
FTUS43 KMQT 221141
TAFSAW
TAF
KSAW 221141Z 2212/2312 20008KT P6SM BKN200
     FM222000 00000KT 4SM -SHRA BKN035
     FM222300 01003KT 2SM -SHRA OVC008
     FM230000 02004KT 1 1/2SM -SHRA OVC003
     FM230700 35011G18KT 1SM -DZ OVC003
     FM231000 35011G20KT 3SM -DZ OVC003=

USA.gov is the U.S. government's official web portal to all federal, state and local government web resources and services.